sensor_id;sensor_type;location;lat;lon;timestamp;temperature;humidity
43665;DHT22;29263;48.172;11.484;2022-12-08T00:01:27;1.70;99.90
43665;DHT22;29263;48.172;11.484;2022-12-08T00:03:53;1.70;99.90
43665;DHT22;29263;48.172;11.484;2022-12-08T00:06:24;1.70;99.90
43665;DHT22;29263;48.172;11.484;2022-12-08T00:09:17;1.70;99.90
43665;DHT22;29263;48.172;11.484;2022-12-08T00:11:47;1.70;99.90
43665;DHT22;29263;48.172;11.484;2022-12-08T00:14:12;1.70;99.90
43665;DHT22;29263;48.172;11.484;2022-12-08T00:16:38;1.70;99.90
43665;DHT22;29263;48.172;11.484;2022-12-08T00:19:04;1.70;99.90
43665;DHT22;29263;48.172;11.484;2022-12-08T00:21:29;1.70;99.90
43665;DHT22;29263;48.172;11.484;2022-12-08T00:23:55;1.70;99.90
43665;DHT22;29263;48.172;11.484;2022-12-08T00:26:21;1.70;99.90
43665;DHT22;29263;48.172;11.484;2022-12-08T00:28:47;1.70;99.90
43665;DHT22;29263;48.172;11.484;2022-12-08T00:31:12;1.60;99.90
43665;DHT22;29263;48.172;11.484;2022-12-08T00:33:38;1.60;99.90
43665;DHT22;29263;48.172;11.484;2022-12-08T00:36:09;1.60;99.90
43665;DHT22;29263;48.172;11.484;2022-12-08T00:38:35;1.60;99.90
43665;DHT22;29263;48.172;11.484;2022-12-08T00:41:02;1.60;99.90
43665;DHT22;29263;48.172;11.484;2022-12-08T00:43:27;1.60;99.90
43665;DHT22;29263;48.172;11.484;2022-12-08T00:45:53;1.60;99.90
43665;DHT22;29263;48.172;11.484;2022-12-08T00:48:19;1.60;99.90
43665;DHT22;29263;48.172;11.484;2022-12-08T00:50:44;1.60;99.90
43665;DHT22;29263;48.172;11.484;2022-12-08T00:53:10;1.60;99.90
43665;DHT22;29263;48.172;11.484;2022-12-08T00:55:35;1.60;99.90
43665;DHT22;29263;48.172;11.484;2022-12-08T00:58:01;1.50;99.90
43665;DHT22;29263;48.172;11.484;2022-12-08T01:00:26;1.50;99.90
43665;DHT22;29263;48.172;11.484;2022-12-08T01:02:52;1.50;99.90
43665;DHT22;29263;48.172;11.484;2022-12-08T01:05:18;1.60;99.90
43665;DHT22;29263;48.172;11.484;2022-12-08T01:07:43;1.60;99.90
43665;DHT22;29263;48.172;11.484;2022-12-08T01:10:09;1.60;99.90
43665;DHT22;29263;48.172;11.484;2022-12-08T01:12:34;1.60;99.90
43665;DHT22;29263;48.172;11.484;2022-12-08T01:15:00;1.60;99.90
43665;DHT22;29263;48.172;11.484;2022-12-08T01:17:26;1.60;99.90
43665;DHT22;29263;48.172;11.484;2022-12-08T01:19:51;1.60;99.90
43665;DHT22;29263;48.172;11.484;2022-12-08T01:22:17;1.60;99.90
43665;DHT22;29263;48.172;11.484;2022-12-08T01:24:43;1.70;99.90
43665;DHT22;29263;48.172;11.484;2022-12-08T01:27:08;1.70;99.90
43665;DHT22;29263;48.172;11.484;2022-12-08T01:29:34;1.70;99.90
43665;DHT22;29263;48.172;11.484;2022-12-08T01:31:59;1.70;99.90
43665;DHT22;29263;48.172;11.484;2022-12-08T01:34:25;1.60;99.90
43665;DHT22;29263;48.172;11.484;2022-12-08T01:36:51;1.60;99.90
43665;DHT22;29263;48.172;11.484;2022-12-08T01:39:36;1.60;99.90
43665;DHT22;29263;48.172;11.484;2022-12-08T01:42:02;1.70;99.90
43665;DHT22;29263;48.172;11.484;2022-12-08T01:46:53;1.70;99.90
43665;DHT22;29263;48.172;11.484;2022-12-08T01:49:29;1.70;99.90
43665;DHT22;29263;48.172;11.484;2022-12-08T01:52:15;1.70;99.90
43665;DHT22;29263;48.172;11.484;2022-12-08T01:54:53;1.70;99.90
43665;DHT22;29263;48.172;11.484;2022-12-08T01:57:28;1.70;99.90
43665;DHT22;29263;48.172;11.484;2022-12-08T02:00:06;1.60;99.90
43665;DHT22;29263;48.172;11.484;2022-12-08T02:05:23;1.60;99.90
43665;DHT22;29263;48.172;11.484;2022-12-08T02:07:50;1.60;99.90
43665;DHT22;29263;48.172;11.484;2022-12-08T02:10:21;1.60;99.90
43665;DHT22;29263;48.172;11.484;2022-12-08T02:12:48;1.60;99.90
43665;DHT22;29263;48.172;11.484;2022-12-08T02:15:15;1.60;99.90
43665;DHT22;29263;48.172;11.484;2022-12-08T02:37:22;1.50;99.90
43665;DHT22;29263;48.172;11.484;2022-12-08T02:42:42;1.50;99.90
43665;DHT22;29263;48.172;11.484;2022-12-08T02:45:30;1.50;99.90
43665;DHT22;29263;48.172;11.484;2022-12-08T02:47:58;1.40;99.90
43665;DHT22;29263;48.172;11.484;2022-12-08T02:50:26;1.30;99.90
43665;DHT22;29263;48.172;11.484;2022-12-08T02:52:51;1.30;99.90
43665;DHT22;29263;48.172;11.484;2022-12-08T03:09:05;1.10;99.90
43665;DHT22;29263;48.172;11.484;2022-12-08T03:16:55;1.20;99.90
43665;DHT22;29263;48.172;11.484;2022-12-08T03:21:58;1.00;99.90
43665;DHT22;29263;48.172;11.484;2022-12-08T03:34:50;1.00;99.90
43665;DHT22;29263;48.172;11.484;2022-12-08T03:42:26;0.90;99.90
43665;DHT22;29263;48.172;11.484;2022-12-08T03:58:05;0.80;99.90
43665;DHT22;29263;48.172;11.484;2022-12-08T05:07:47;0.70;99.90
43665;DHT22;29263;48.172;11.484;2022-12-08T05:59:25;0.90;99.90
43665;DHT22;29263;48.172;11.484;2022-12-08T06:01:50;0.90;99.90
43665;DHT22;29263;48.172;11.484;2022-12-08T06:04:16;0.90;99.90
43665;DHT22;29263;48.172;11.484;2022-12-08T06:06:41;0.90;99.90
43665;DHT22;29263;48.172;11.484;2022-12-08T06:09:07;0.90;99.90
43665;DHT22;29263;48.172;11.484;2022-12-08T06:11:34;0.90;99.90
43665;DHT22;29263;48.172;11.484;2022-12-08T06:14:00;0.90;99.90
43665;DHT22;29263;48.172;11.484;2022-12-08T06:16:26;0.90;99.90
43665;DHT22;29263;48.172;11.484;2022-12-08T06:18:53;0.90;99.90
43665;DHT22;29263;48.172;11.484;2022-12-08T06:21:19;1.00;99.90
43665;DHT22;29263;48.172;11.484;2022-12-08T06:23:48;1.00;99.90
43665;DHT22;29263;48.172;11.484;2022-12-08T06:26:15;1.00;99.90
43665;DHT22;29263;48.172;11.484;2022-12-08T06:28:41;1.00;99.90
43665;DHT22;29263;48.172;11.484;2022-12-08T06:31:09;0.90;99.90
43665;DHT22;29263;48.172;11.484;2022-12-08T06:33:36;0.90;99.90
43665;DHT22;29263;48.172;11.484;2022-12-08T06:36:01;0.90;99.90
43665;DHT22;29263;48.172;11.484;2022-12-08T06:38:27;0.90;99.90
43665;DHT22;29263;48.172;11.484;2022-12-08T06:40:56;1.00;99.90
43665;DHT22;29263;48.172;11.484;2022-12-08T06:43:22;1.00;99.90
43665;DHT22;29263;48.172;11.484;2022-12-08T06:45:48;0.90;99.90
43665;DHT22;29263;48.172;11.484;2022-12-08T06:48:14;1.00;99.90
43665;DHT22;29263;48.172;11.484;2022-12-08T06:50:40;0.90;99.90
43665;DHT22;29263;48.172;11.484;2022-12-08T06:53:05;0.90;99.90
43665;DHT22;29263;48.172;11.484;2022-12-08T06:55:32;0.90;99.90
43665;DHT22;29263;48.172;11.484;2022-12-08T06:57:57;0.80;99.90
43665;DHT22;29263;48.172;11.484;2022-12-08T07:00:23;0.80;99.90
43665;DHT22;29263;48.172;11.484;2022-12-08T07:02:49;0.90;99.90
43665;DHT22;29263;48.172;11.484;2022-12-08T07:05:14;0.90;99.90
43665;DHT22;29263;48.172;11.484;2022-12-08T07:07:40;0.90;99.90
43665;DHT22;29263;48.172;11.484;2022-12-08T07:10:06;0.90;99.90
43665;DHT22;29263;48.172;11.484;2022-12-08T07:12:31;0.90;99.90
43665;DHT22;29263;48.172;11.484;2022-12-08T07:14:57;0.90;99.90
43665;DHT22;29263;48.172;11.484;2022-12-08T07:17:23;0.90;99.90
43665;DHT22;29263;48.172;11.484;2022-12-08T07:19:49;1.00;99.90
43665;DHT22;29263;48.172;11.484;2022-12-08T07:22:14;1.00;99.90
43665;DHT22;29263;48.172;11.484;2022-12-08T07:24:40;1.00;99.90
43665;DHT22;29263;48.172;11.484;2022-12-08T07:27:06;1.00;99.90
43665;DHT22;29263;48.172;11.484;2022-12-08T07:29:31;1.00;99.90
43665;DHT22;29263;48.172;11.484;2022-12-08T07:31:57;1.00;99.90
43665;DHT22;29263;48.172;11.484;2022-12-08T07:34:22;1.00;99.90
43665;DHT22;29263;48.172;11.484;2022-12-08T07:36:48;1.00;99.90
43665;DHT22;29263;48.172;11.484;2022-12-08T07:39:14;1.10;99.90
43665;DHT22;29263;48.172;11.484;2022-12-08T07:41:39;1.00;99.90
43665;DHT22;29263;48.172;11.484;2022-12-08T07:44:05;1.00;99.90
43665;DHT22;29263;48.172;11.484;2022-12-08T07:46:30;1.10;99.90
43665;DHT22;29263;48.172;11.484;2022-12-08T07:48:56;1.10;99.90
43665;DHT22;29263;48.172;11.484;2022-12-08T07:51:22;1.20;99.90
43665;DHT22;29263;48.172;11.484;2022-12-08T07:53:49;1.30;99.90
43665;DHT22;29263;48.172;11.484;2022-12-08T07:56:15;1.30;99.90
43665;DHT22;29263;48.172;11.484;2022-12-08T07:58:41;1.30;99.90
43665;DHT22;29263;48.172;11.484;2022-12-08T08:01:27;1.40;99.90
43665;DHT22;29263;48.172;11.484;2022-12-08T08:03:54;1.40;99.90
43665;DHT22;29263;48.172;11.484;2022-12-08T08:06:20;1.40;99.90
43665;DHT22;29263;48.172;11.484;2022-12-08T08:08:46;1.50;99.90
43665;DHT22;29263;48.172;11.484;2022-12-08T08:11:12;1.50;99.90
43665;DHT22;29263;48.172;11.484;2022-12-08T08:13:38;1.60;99.90
43665;DHT22;29263;48.172;11.484;2022-12-08T08:16:08;1.60;99.90
43665;DHT22;29263;48.172;11.484;2022-12-08T08:18:36;1.70;99.90
43665;DHT22;29263;48.172;11.484;2022-12-08T08:21:02;1.70;99.90
43665;DHT22;29263;48.172;11.484;2022-12-08T08:23:28;1.70;99.90
43665;DHT22;29263;48.172;11.484;2022-12-08T08:25:57;1.80;99.90
43665;DHT22;29263;48.172;11.484;2022-12-08T08:28:23;1.80;99.90
43665;DHT22;29263;48.172;11.484;2022-12-08T08:30:48;1.90;99.90
43665;DHT22;29263;48.172;11.484;2022-12-08T08:33:14;1.90;99.90
43665;DHT22;29263;48.172;11.484;2022-12-08T08:35:39;2.00;99.90
43665;DHT22;29263;48.172;11.484;2022-12-08T08:38:06;2.00;99.90
43665;DHT22;29263;48.172;11.484;2022-12-08T08:40:32;2.10;99.90
43665;DHT22;29263;48.172;11.484;2022-12-08T08:42:59;2.10;99.90
43665;DHT22;29263;48.172;11.484;2022-12-08T08:45:25;2.10;99.90
43665;DHT22;29263;48.172;11.484;2022-12-08T08:47:51;2.20;99.90
43665;DHT22;29263;48.172;11.484;2022-12-08T08:50:16;2.20;99.90
43665;DHT22;29263;48.172;11.484;2022-12-08T08:52:42;2.30;99.90
43665;DHT22;29263;48.172;11.484;2022-12-08T08:55:08;2.40;99.90
43665;DHT22;29263;48.172;11.484;2022-12-08T08:57:33;2.40;99.90
43665;DHT22;29263;48.172;11.484;2022-12-08T08:59:59;2.40;99.90
43665;DHT22;29263;48.172;11.484;2022-12-08T09:02:25;2.50;99.90
43665;DHT22;29263;48.172;11.484;2022-12-08T09:04:51;2.50;99.90
43665;DHT22;29263;48.172;11.484;2022-12-08T09:07:17;2.60;99.90
43665;DHT22;29263;48.172;11.484;2022-12-08T09:09:42;2.60;99.90
43665;DHT22;29263;48.172;11.484;2022-12-08T09:12:08;2.70;99.90
43665;DHT22;29263;48.172;11.484;2022-12-08T09:14:34;2.70;99.90
43665;DHT22;29263;48.172;11.484;2022-12-08T09:17:00;2.80;99.90
43665;DHT22;29263;48.172;11.484;2022-12-08T09:19:26;2.90;99.90
43665;DHT22;29263;48.172;11.484;2022-12-08T09:21:52;2.90;99.90
43665;DHT22;29263;48.172;11.484;2022-12-08T09:24:17;3.00;99.90
43665;DHT22;29263;48.172;11.484;2022-12-08T09:26:43;3.00;99.90
43665;DHT22;29263;48.172;11.484;2022-12-08T09:29:10;3.10;99.90
43665;DHT22;29263;48.172;11.484;2022-12-08T09:31:36;3.10;99.90
43665;DHT22;29263;48.172;11.484;2022-12-08T09:34:03;3.10;99.90
43665;DHT22;29263;48.172;11.484;2022-12-08T09:36:30;3.20;99.90
43665;DHT22;29263;48.172;11.484;2022-12-08T09:38:55;3.20;99.90
43665;DHT22;29263;48.172;11.484;2022-12-08T09:44:15;3.20;99.90
43665;DHT22;29263;48.172;11.484;2022-12-08T09:46:43;3.30;99.90
43665;DHT22;29263;48.172;11.484;2022-12-08T09:49:15;3.20;99.90
43665;DHT22;29263;48.172;11.484;2022-12-08T09:51:43;3.30;99.90
43665;DHT22;29263;48.172;11.484;2022-12-08T09:54:24;3.30;99.90
43665;DHT22;29263;48.172;11.484;2022-12-08T09:56:54;3.30;99.90
43665;DHT22;29263;48.172;11.484;2022-12-08T09:59:43;3.30;99.90
43665;DHT22;29263;48.172;11.484;2022-12-08T10:02:21;3.40;99.90
43665;DHT22;29263;48.172;11.484;2022-12-08T10:04:47;3.40;99.90
43665;DHT22;29263;48.172;11.484;2022-12-08T10:10:02;3.50;99.90
43665;DHT22;29263;48.172;11.484;2022-12-08T10:12:41;3.50;99.90
43665;DHT22;29263;48.172;11.484;2022-12-08T10:17:54;3.60;99.90
43665;DHT22;29263;48.172;11.484;2022-12-08T10:20:27;3.60;99.90
43665;DHT22;29263;48.172;11.484;2022-12-08T10:25:48;3.70;99.90
43665;DHT22;29263;48.172;11.484;2022-12-08T10:28:13;3.70;99.90
43665;DHT22;29263;48.172;11.484;2022-12-08T10:30:39;3.80;99.90
43665;DHT22;29263;48.172;11.484;2022-12-08T10:33:11;3.90;99.90
43665;DHT22;29263;48.172;11.484;2022-12-08T10:35:44;3.80;99.90
43665;DHT22;29263;48.172;11.484;2022-12-08T10:40:48;4.10;99.90
43665;DHT22;29263;48.172;11.484;2022-12-08T10:43:21;4.10;99.90
43665;DHT22;29263;48.172;11.484;2022-12-08T10:45:47;4.30;99.90
43665;DHT22;29263;48.172;11.484;2022-12-08T10:48:28;4.40;99.90
43665;DHT22;29263;48.172;11.484;2022-12-08T10:50:57;4.40;99.90
43665;DHT22;29263;48.172;11.484;2022-12-08T10:53:28;4.30;99.90
43665;DHT22;29263;48.172;11.484;2022-12-08T10:58:38;4.30;99.90
43665;DHT22;29263;48.172;11.484;2022-12-08T11:01:23;4.30;99.90
43665;DHT22;29263;48.172;11.484;2022-12-08T11:03:57;4.30;99.90
43665;DHT22;29263;48.172;11.484;2022-12-08T11:06:40;4.30;99.90
43665;DHT22;29263;48.172;11.484;2022-12-08T11:09:23;4.30;99.90
43665;DHT22;29263;48.172;11.484;2022-12-08T11:12:06;4.40;99.90
43665;DHT22;29263;48.172;11.484;2022-12-08T11:20:03;4.40;99.90
43665;DHT22;29263;48.172;11.484;2022-12-08T11:22:32;4.30;99.90
43665;DHT22;29263;48.172;11.484;2022-12-08T11:25:09;4.30;99.90
43665;DHT22;29263;48.172;11.484;2022-12-08T11:27:38;4.30;99.90
43665;DHT22;29263;48.172;11.484;2022-12-08T11:30:17;4.30;99.90
43665;DHT22;29263;48.172;11.484;2022-12-08T11:32:48;4.30;99.90
43665;DHT22;29263;48.172;11.484;2022-12-08T11:37:45;4.40;99.90
43665;DHT22;29263;48.172;11.484;2022-12-08T11:40:52;4.50;99.90
43665;DHT22;29263;48.172;11.484;2022-12-08T11:45:41;4.50;99.90
43665;DHT22;29263;48.172;11.484;2022-12-08T11:48:12;4.50;99.90
43665;DHT22;29263;48.172;11.484;2022-12-08T11:50:52;4.50;99.90
43665;DHT22;29263;48.172;11.484;2022-12-08T11:53:30;4.50;99.90
43665;DHT22;29263;48.172;11.484;2022-12-08T11:56:30;4.50;99.90
43665;DHT22;29263;48.172;11.484;2022-12-08T12:01:40;4.60;99.90
43665;DHT22;29263;48.172;11.484;2022-12-08T12:20:28;4.60;99.90
43665;DHT22;29263;48.172;11.484;2022-12-08T12:25:31;4.60;99.90
43665;DHT22;29263;48.172;11.484;2022-12-08T12:28:04;4.60;99.90
43665;DHT22;29263;48.172;11.484;2022-12-08T12:30:50;4.60;99.90
43665;DHT22;29263;48.172;11.484;2022-12-08T12:33:18;4.60;99.90
43665;DHT22;29263;48.172;11.484;2022-12-08T12:35:45;4.50;99.90
43665;DHT22;29263;48.172;11.484;2022-12-08T12:41:11;4.50;99.90
43665;DHT22;29263;48.172;11.484;2022-12-08T12:43:38;4.40;99.90
43665;DHT22;29263;48.172;11.484;2022-12-08T12:48:49;4.50;99.90
43665;DHT22;29263;48.172;11.484;2022-12-08T12:51:45;4.60;99.90
43665;DHT22;29263;48.172;11.484;2022-12-08T12:54:24;4.60;99.90
43665;DHT22;29263;48.172;11.484;2022-12-08T12:56:54;4.60;99.90
43665;DHT22;29263;48.172;11.484;2022-12-08T13:01:56;4.60;99.90
43665;DHT22;29263;48.172;11.484;2022-12-08T13:04:35;4.70;99.90
43665;DHT22;29263;48.172;11.484;2022-12-08T13:07:02;5.00;99.90
43665;DHT22;29263;48.172;11.484;2022-12-08T13:09:32;5.10;99.90
43665;DHT22;29263;48.172;11.484;2022-12-08T13:12:07;5.00;99.90
43665;DHT22;29263;48.172;11.484;2022-12-08T13:14:37;4.90;99.90
43665;DHT22;29263;48.172;11.484;2022-12-08T13:17:11;4.70;99.90
43665;DHT22;29263;48.172;11.484;2022-12-08T13:19:38;4.70;99.90
43665;DHT22;29263;48.172;11.484;2022-12-08T13:28:25;4.80;99.90
43665;DHT22;29263;48.172;11.484;2022-12-08T13:31:02;4.90;99.90
43665;DHT22;29263;48.172;11.484;2022-12-08T13:33:36;4.80;99.90
43665;DHT22;29263;48.172;11.484;2022-12-08T13:36:23;4.80;99.90
43665;DHT22;29263;48.172;11.484;2022-12-08T13:38:54;4.80;99.90
43665;DHT22;29263;48.172;11.484;2022-12-08T13:41:37;4.80;99.90
43665;DHT22;29263;48.172;11.484;2022-12-08T13:44:11;4.90;99.90
43665;DHT22;29263;48.172;11.484;2022-12-08T13:47:01;4.80;99.90
43665;DHT22;29263;48.172;11.484;2022-12-08T13:49:34;4.80;99.90
43665;DHT22;29263;48.172;11.484;2022-12-08T13:52:02;4.70;99.90
43665;DHT22;29263;48.172;11.484;2022-12-08T13:54:35;4.70;99.90
43665;DHT22;29263;48.172;11.484;2022-12-08T13:57:06;4.70;99.90
43665;DHT22;29263;48.172;11.484;2022-12-08T13:59:33;4.70;99.90
43665;DHT22;29263;48.172;11.484;2022-12-08T14:02:15;4.60;99.90
43665;DHT22;29263;48.172;11.484;2022-12-08T14:04:44;4.60;99.90
43665;DHT22;29263;48.172;11.484;2022-12-08T14:07:11;4.50;99.90
43665;DHT22;29263;48.172;11.484;2022-12-08T14:09:38;4.40;99.90
43665;DHT22;29263;48.172;11.484;2022-12-08T14:12:08;4.40;99.90
43665;DHT22;29263;48.172;11.484;2022-12-08T14:14:45;4.40;99.90
43665;DHT22;29263;48.172;11.484;2022-12-08T14:17:14;4.30;99.90
43665;DHT22;29263;48.172;11.484;2022-12-08T14:19:43;4.30;99.90
43665;DHT22;29263;48.172;11.484;2022-12-08T14:22:11;4.30;99.90
43665;DHT22;29263;48.172;11.484;2022-12-08T14:24:39;4.30;99.90
43665;DHT22;29263;48.172;11.484;2022-12-08T14:27:07;4.30;99.90
43665;DHT22;29263;48.172;11.484;2022-12-08T14:29:43;4.40;99.90
43665;DHT22;29263;48.172;11.484;2022-12-08T14:32:41;4.40;99.90
43665;DHT22;29263;48.172;11.484;2022-12-08T14:37:54;4.30;99.90
43665;DHT22;29263;48.172;11.484;2022-12-08T14:40:29;4.20;99.90
43665;DHT22;29263;48.172;11.484;2022-12-08T14:53:24;3.80;99.90
43665;DHT22;29263;48.172;11.484;2022-12-08T14:55:50;3.70;99.90
43665;DHT22;29263;48.172;11.484;2022-12-08T14:58:28;3.70;99.90
43665;DHT22;29263;48.172;11.484;2022-12-08T15:00:56;3.70;99.90
43665;DHT22;29263;48.172;11.484;2022-12-08T15:03:24;3.60;99.90
43665;DHT22;29263;48.172;11.484;2022-12-08T15:05:55;3.60;99.90
43665;DHT22;29263;48.172;11.484;2022-12-08T15:08:21;3.50;99.90
43665;DHT22;29263;48.172;11.484;2022-12-08T15:11:26;3.50;99.90
43665;DHT22;29263;48.172;11.484;2022-12-08T15:13:54;3.50;99.90
43665;DHT22;29263;48.172;11.484;2022-12-08T15:16:28;3.40;99.90
43665;DHT22;29263;48.172;11.484;2022-12-08T15:21:48;3.20;99.90
43665;DHT22;29263;48.172;11.484;2022-12-08T15:24:15;3.20;99.90
43665;DHT22;29263;48.172;11.484;2022-12-08T15:26:48;3.10;99.90
43665;DHT22;29263;48.172;11.484;2022-12-08T15:29:20;3.10;99.90
43665;DHT22;29263;48.172;11.484;2022-12-08T15:31:46;3.10;99.90
43665;DHT22;29263;48.172;11.484;2022-12-08T15:34:11;3.10;99.90
43665;DHT22;29263;48.172;11.484;2022-12-08T15:36:37;3.00;99.90
43665;DHT22;29263;48.172;11.484;2022-12-08T15:41:42;3.10;99.90
43665;DHT22;29263;48.172;11.484;2022-12-08T15:44:08;3.10;99.90
43665;DHT22;29263;48.172;11.484;2022-12-08T15:46:34;3.10;99.90
43665;DHT22;29263;48.172;11.484;2022-12-08T15:48:59;3.00;99.90
43665;DHT22;29263;48.172;11.484;2022-12-08T15:51:26;3.00;99.90
43665;DHT22;29263;48.172;11.484;2022-12-08T15:53:51;3.00;99.90
43665;DHT22;29263;48.172;11.484;2022-12-08T15:56:17;3.00;99.90
43665;DHT22;29263;48.172;11.484;2022-12-08T15:58:43;2.90;99.90
43665;DHT22;29263;48.172;11.484;2022-12-08T16:01:09;2.90;99.90
43665;DHT22;29263;48.172;11.484;2022-12-08T16:03:35;2.90;99.90
43665;DHT22;29263;48.172;11.484;2022-12-08T16:06:00;2.80;99.90
43665;DHT22;29263;48.172;11.484;2022-12-08T16:08:27;2.80;99.90
43665;DHT22;29263;48.172;11.484;2022-12-08T16:10:54;2.80;99.90
43665;DHT22;29263;48.172;11.484;2022-12-08T16:13:40;2.90;99.90
43665;DHT22;29263;48.172;11.484;2022-12-08T16:16:20;2.80;99.90
43665;DHT22;29263;48.172;11.484;2022-12-08T16:18:48;2.70;99.90
43665;DHT22;29263;48.172;11.484;2022-12-08T16:21:15;2.70;99.90
43665;DHT22;29263;48.172;11.484;2022-12-08T16:23:41;2.60;99.90
43665;DHT22;29263;48.172;11.484;2022-12-08T16:26:15;2.60;99.90
43665;DHT22;29263;48.172;11.484;2022-12-08T16:28:41;2.50;99.90
43665;DHT22;29263;48.172;11.484;2022-12-08T16:31:10;2.50;99.90
43665;DHT22;29263;48.172;11.484;2022-12-08T16:33:36;2.40;99.90
43665;DHT22;29263;48.172;11.484;2022-12-08T16:36:02;2.40;99.90
43665;DHT22;29263;48.172;11.484;2022-12-08T16:38:28;2.40;99.90
43665;DHT22;29263;48.172;11.484;2022-12-08T16:40:53;2.30;99.90
43665;DHT22;29263;48.172;11.484;2022-12-08T16:43:37;2.30;99.90
43665;DHT22;29263;48.172;11.484;2022-12-08T16:46:03;2.30;99.90
43665;DHT22;29263;48.172;11.484;2022-12-08T16:48:29;2.30;99.90
43665;DHT22;29263;48.172;11.484;2022-12-08T16:50:55;2.20;99.90
43665;DHT22;29263;48.172;11.484;2022-12-08T16:53:21;2.20;99.90
43665;DHT22;29263;48.172;11.484;2022-12-08T16:55:48;2.20;99.90
43665;DHT22;29263;48.172;11.484;2022-12-08T16:58:14;2.20;99.90
43665;DHT22;29263;48.172;11.484;2022-12-08T17:00:40;2.10;99.90
43665;DHT22;29263;48.172;11.484;2022-12-08T17:03:06;2.10;99.90
43665;DHT22;29263;48.172;11.484;2022-12-08T17:05:33;2.10;99.90
43665;DHT22;29263;48.172;11.484;2022-12-08T17:07:59;2.00;99.90
43665;DHT22;29263;48.172;11.484;2022-12-08T17:10:28;2.00;99.90
43665;DHT22;29263;48.172;11.484;2022-12-08T17:12:55;1.90;99.90
43665;DHT22;29263;48.172;11.484;2022-12-08T17:15:23;1.80;99.90
43665;DHT22;29263;48.172;11.484;2022-12-08T17:17:49;1.80;99.90
43665;DHT22;29263;48.172;11.484;2022-12-08T17:20:20;1.70;99.90
43665;DHT22;29263;48.172;11.484;2022-12-08T17:22:46;1.60;99.90
43665;DHT22;29263;48.172;11.484;2022-12-08T17:25:12;1.60;99.90
43665;DHT22;29263;48.172;11.484;2022-12-08T17:27:38;1.50;99.90
43665;DHT22;29263;48.172;11.484;2022-12-08T17:30:05;1.50;99.90
43665;DHT22;29263;48.172;11.484;2022-12-08T17:32:31;1.40;99.90
43665;DHT22;29263;48.172;11.484;2022-12-08T17:34:57;1.30;99.90
43665;DHT22;29263;48.172;11.484;2022-12-08T17:37:22;1.30;99.90
43665;DHT22;29263;48.172;11.484;2022-12-08T17:39:48;1.20;99.90
43665;DHT22;29263;48.172;11.484;2022-12-08T17:42:14;1.20;99.90
43665;DHT22;29263;48.172;11.484;2022-12-08T17:44:39;1.10;99.90
43665;DHT22;29263;48.172;11.484;2022-12-08T17:47:05;1.10;99.90
43665;DHT22;29263;48.172;11.484;2022-12-08T17:49:31;1.10;99.90
43665;DHT22;29263;48.172;11.484;2022-12-08T17:52:01;1.00;99.90
43665;DHT22;29263;48.172;11.484;2022-12-08T17:54:27;1.00;99.90
43665;DHT22;29263;48.172;11.484;2022-12-08T17:56:54;1.00;99.90
43665;DHT22;29263;48.172;11.484;2022-12-08T17:59:23;0.90;99.90
43665;DHT22;29263;48.172;11.484;2022-12-08T18:01:51;0.90;99.90
43665;DHT22;29263;48.172;11.484;2022-12-08T18:04:17;0.80;99.90
43665;DHT22;29263;48.172;11.484;2022-12-08T18:06:42;0.80;99.90
43665;DHT22;29263;48.172;11.484;2022-12-08T18:09:08;0.80;99.90
43665;DHT22;29263;48.172;11.484;2022-12-08T18:11:34;0.80;99.90
43665;DHT22;29263;48.172;11.484;2022-12-08T18:14:01;0.70;99.90
43665;DHT22;29263;48.172;11.484;2022-12-08T18:16:35;0.70;99.90
43665;DHT22;29263;48.172;11.484;2022-12-08T18:19:00;0.70;99.90
43665;DHT22;29263;48.172;11.484;2022-12-08T18:21:27;0.60;99.90
43665;DHT22;29263;48.172;11.484;2022-12-08T18:23:53;0.60;99.90
43665;DHT22;29263;48.172;11.484;2022-12-08T18:26:19;0.60;99.90
43665;DHT22;29263;48.172;11.484;2022-12-08T18:28:45;0.50;99.90
43665;DHT22;29263;48.172;11.484;2022-12-08T18:31:13;0.50;99.90
43665;DHT22;29263;48.172;11.484;2022-12-08T18:33:41;0.50;99.90
43665;DHT22;29263;48.172;11.484;2022-12-08T18:36:10;0.50;99.90
43665;DHT22;29263;48.172;11.484;2022-12-08T18:38:36;0.50;99.90
43665;DHT22;29263;48.172;11.484;2022-12-08T18:41:07;0.40;99.90
43665;DHT22;29263;48.172;11.484;2022-12-08T18:43:33;0.40;99.90
43665;DHT22;29263;48.172;11.484;2022-12-08T18:46:10;0.40;99.90
43665;DHT22;29263;48.172;11.484;2022-12-08T18:48:38;0.40;99.90
43665;DHT22;29263;48.172;11.484;2022-12-08T18:51:08;0.30;99.90
43665;DHT22;29263;48.172;11.484;2022-12-08T18:53:35;0.30;99.90
43665;DHT22;29263;48.172;11.484;2022-12-08T18:56:02;0.30;99.90
43665;DHT22;29263;48.172;11.484;2022-12-08T18:58:27;0.20;99.90
43665;DHT22;29263;48.172;11.484;2022-12-08T19:00:53;0.20;99.90
43665;DHT22;29263;48.172;11.484;2022-12-08T19:03:19;0.20;99.90
43665;DHT22;29263;48.172;11.484;2022-12-08T19:05:44;0.20;99.90
43665;DHT22;29263;48.172;11.484;2022-12-08T19:08:10;0.10;99.90
43665;DHT22;29263;48.172;11.484;2022-12-08T19:10:36;0.10;99.90
43665;DHT22;29263;48.172;11.484;2022-12-08T19:13:03;0.10;99.90
43665;DHT22;29263;48.172;11.484;2022-12-08T19:15:29;0.10;99.90
43665;DHT22;29263;48.172;11.484;2022-12-08T19:17:55;0.10;99.90
43665;DHT22;29263;48.172;11.484;2022-12-08T19:20:20;0.10;99.90
43665;DHT22;29263;48.172;11.484;2022-12-08T19:22:46;0.00;99.90
43665;DHT22;29263;48.172;11.484;2022-12-08T19:25:12;0.00;99.90
43665;DHT22;29263;48.172;11.484;2022-12-08T19:27:37;0.00;99.90
43665;DHT22;29263;48.172;11.484;2022-12-08T19:30:03;0.00;99.90
43665;DHT22;29263;48.172;11.484;2022-12-08T19:32:29;-0.10;99.90
43665;DHT22;29263;48.172;11.484;2022-12-08T19:34:55;-0.10;99.90
43665;DHT22;29263;48.172;11.484;2022-12-08T19:37:21;-0.10;99.90
43665;DHT22;29263;48.172;11.484;2022-12-08T19:39:46;-0.10;99.90
43665;DHT22;29263;48.172;11.484;2022-12-08T19:42:31;-0.10;99.90
43665;DHT22;29263;48.172;11.484;2022-12-08T19:45:17;-0.10;99.90
43665;DHT22;29263;48.172;11.484;2022-12-08T19:47:44;-0.20;99.90
43665;DHT22;29263;48.172;11.484;2022-12-08T19:50:11;-0.20;99.90
43665;DHT22;29263;48.172;11.484;2022-12-08T19:52:56;-0.20;99.90
43665;DHT22;29263;48.172;11.484;2022-12-08T19:55:23;-0.20;99.90
43665;DHT22;29263;48.172;11.484;2022-12-08T19:57:50;-0.30;99.90
43665;DHT22;29263;48.172;11.484;2022-12-08T20:00:16;-0.30;99.90
43665;DHT22;29263;48.172;11.484;2022-12-08T20:02:42;-0.30;99.90
43665;DHT22;29263;48.172;11.484;2022-12-08T20:05:08;-0.30;99.90
43665;DHT22;29263;48.172;11.484;2022-12-08T20:07:34;-0.40;99.90
43665;DHT22;29263;48.172;11.484;2022-12-08T20:10:00;-0.40;99.90
43665;DHT22;29263;48.172;11.484;2022-12-08T20:12:27;-0.30;99.90
43665;DHT22;29263;48.172;11.484;2022-12-08T20:14:53;-0.30;99.90
43665;DHT22;29263;48.172;11.484;2022-12-08T20:17:19;-0.30;99.90